createdAt,value
2022-11-23T00:01:42.042Z,1.57
2022-11-23T00:04:15.072Z,1.65
2022-11-23T00:06:45.300Z,1.70
2022-11-23T00:09:15.517Z,1.76
2022-11-23T00:11:45.652Z,1.83
2022-11-23T00:14:16.483Z,1.91
2022-11-23T00:16:46.721Z,1.96
2022-11-23T00:19:16.693Z,2.01
2022-11-23T00:21:47.755Z,2.08
2022-11-23T00:24:18.430Z,2.18
2022-11-23T00:26:51.753Z,2.24
2022-11-23T00:29:22.330Z,2.31
2022-11-23T00:31:52.519Z,2.36
2022-11-23T00:34:22.563Z,2.44
2022-11-23T00:36:54.045Z,2.52
2022-11-23T00:39:24.770Z,2.61
2022-11-23T00:41:54.802Z,2.67
2022-11-23T00:44:26.109Z,2.69
2022-11-23T00:46:58.208Z,2.76
2022-11-23T00:49:33.572Z,2.82
2022-11-23T00:52:05.013Z,2.87
2022-11-23T00:54:35.571Z,2.94
2022-11-23T00:57:05.513Z,2.98
2022-11-23T00:59:35.447Z,3.08
2022-11-23T01:02:05.427Z,3.14
2022-11-23T01:04:35.436Z,3.20
2022-11-23T01:07:05.476Z,3.27
2022-11-23T01:09:36.436Z,3.34
2022-11-23T01:12:09.901Z,3.43
2022-11-23T01:14:40.275Z,3.49
2022-11-23T01:17:10.312Z,3.57
2022-11-23T01:19:40.424Z,3.66
2022-11-23T01:22:10.522Z,3.74
2022-11-23T01:24:40.575Z,3.82
2022-11-23T01:27:11.958Z,3.88
2022-11-23T01:29:43.896Z,3.96
2022-11-23T01:32:14.135Z,4.08
2022-11-23T01:34:45.821Z,4.14
2022-11-23T01:37:16.087Z,4.23
2022-11-23T01:39:47.546Z,4.32
2022-11-23T01:42:18.572Z,4.41
2022-11-23T01:44:52.728Z,4.52
2022-11-23T01:47:23.703Z,4.60
2022-11-23T01:49:55.434Z,4.69
2022-11-23T01:52:29.010Z,4.75
2022-11-23T01:55:06.900Z,4.81
2022-11-23T01:57:44.238Z,4.89
2022-11-23T02:00:15.328Z,4.97
2022-11-23T02:02:56.945Z,5.07
2022-11-23T02:05:34.315Z,5.17
2022-11-23T02:08:07.712Z,5.26
2022-11-23T02:10:40.005Z,5.35
2022-11-23T02:13:17.239Z,5.46
2022-11-23T02:15:49.630Z,5.53
2022-11-23T02:18:28.247Z,5.59
2022-11-23T02:21:03.898Z,5.67
2022-11-23T02:23:49.412Z,5.74
2022-11-23T02:26:32.360Z,5.80
2022-11-23T02:29:21.667Z,5.90
2022-11-23T02:31:52.869Z,5.96
2022-11-23T02:34:26.955Z,6.04
2022-11-23T02:36:59.504Z,6.14
2022-11-23T02:39:36.085Z,6.22
2022-11-23T02:42:07.401Z,6.29
2022-11-23T02:45:21.591Z,6.34
2022-11-23T02:47:52.965Z,6.42
2022-11-23T02:50:24.751Z,6.52
2022-11-23T02:52:55.156Z,6.59
2022-11-23T02:55:25.428Z,6.66
2022-11-23T02:57:55.677Z,6.76
2022-11-23T03:00:26.007Z,6.84
2022-11-23T03:02:55.902Z,6.91
2022-11-23T03:05:26.174Z,6.98
2022-11-23T03:07:56.361Z,7.01
2022-11-23T03:10:26.642Z,7.08
2022-11-23T03:12:58.555Z,7.16
2022-11-23T03:15:33.270Z,7.24
2022-11-23T03:18:07.042Z,7.32
2022-11-23T03:20:38.892Z,7.38
2022-11-23T03:23:09.331Z,7.47
2022-11-23T03:25:41.692Z,7.52
2022-11-23T03:28:11.608Z,7.59
2022-11-23T03:33:34.373Z,7.70
2022-11-23T03:36:04.719Z,7.78
2022-11-23T03:38:41.652Z,7.85
2022-11-23T03:41:26.750Z,7.94
2022-11-23T03:43:57.904Z,8.00
2022-11-23T03:46:28.264Z,8.02
2022-11-23T03:48:58.719Z,8.03
2022-11-23T03:51:28.991Z,8.09
2022-11-23T03:53:59.326Z,8.15
2022-11-23T03:56:30.783Z,8.20
2022-11-23T03:59:02.542Z,8.23
2022-11-23T04:01:33.335Z,8.26
2022-11-23T04:04:07.790Z,8.28
2022-11-23T04:06:57.551Z,8.34
2022-11-23T04:09:34.263Z,8.38
2022-11-23T04:12:09.738Z,8.44
2022-11-23T04:14:44.798Z,8.53
2022-11-23T04:17:15.705Z,8.60
2022-11-23T04:19:47.358Z,8.68
2022-11-23T04:22:18.973Z,8.77
2022-11-23T04:24:51.978Z,8.82
2022-11-23T04:27:23.552Z,8.93
2022-11-23T04:29:55.140Z,9.01
2022-11-23T04:32:26.218Z,9.09
2022-11-23T04:34:57.556Z,9.15
2022-11-23T04:37:30.424Z,9.23
2022-11-23T04:40:01.858Z,9.29
2022-11-23T04:42:52.221Z,9.37
2022-11-23T04:45:24.680Z,9.44
2022-11-23T04:47:59.081Z,9.52
2022-11-23T04:50:33.136Z,9.62
2022-11-23T04:53:04.398Z,9.68
2022-11-23T04:55:43.403Z,9.72
2022-11-23T04:58:14.181Z,9.73
2022-11-23T05:00:44.056Z,9.71
2022-11-23T05:03:16.711Z,9.71
2022-11-23T05:05:47.641Z,9.74
2022-11-23T05:08:18.097Z,9.77
2022-11-23T05:10:54.834Z,9.83
2022-11-23T05:13:28.375Z,9.89
2022-11-23T05:15:59.935Z,9.93
2022-11-23T05:18:32.193Z,10.00
2022-11-23T05:21:02.790Z,10.02
2022-11-23T05:23:35.009Z,10.04
2022-11-23T05:26:06.557Z,10.08
2022-11-23T05:28:41.158Z,10.10
2022-11-23T05:31:16.949Z,10.11
2022-11-23T05:33:51.866Z,10.12
2022-11-23T05:36:34.002Z,10.10
2022-11-23T05:39:07.799Z,10.08
2022-11-23T05:41:39.999Z,10.04
2022-11-23T05:44:25.293Z,10.04
2022-11-23T05:46:58.001Z,10.02
2022-11-23T05:49:32.803Z,10.03
2022-11-23T05:52:06.432Z,10.08
2022-11-23T05:54:43.501Z,10.10
2022-11-23T05:57:18.323Z,10.12
2022-11-23T05:59:50.010Z,10.17
2022-11-23T06:02:28.059Z,10.20
2022-11-23T06:05:04.402Z,10.22
2022-11-23T06:07:45.728Z,10.23
2022-11-23T06:10:16.598Z,10.23
2022-11-23T06:13:10.079Z,10.20
2022-11-23T06:15:41.037Z,10.17
2022-11-23T06:18:13.500Z,10.14
2022-11-23T06:20:50.717Z,10.12
2022-11-23T06:23:23.206Z,10.15
2022-11-23T06:25:54.179Z,10.17
2022-11-23T06:28:28.694Z,10.21
2022-11-23T06:31:05.913Z,10.27
2022-11-23T06:33:39.236Z,10.29
2022-11-23T06:36:12.265Z,10.29
2022-11-23T06:38:49.352Z,10.31
2022-11-23T06:41:32.212Z,10.31
2022-11-23T06:44:05.451Z,10.29
2022-11-23T06:46:45.123Z,10.22
2022-11-23T06:49:15.941Z,10.18
2022-11-23T06:51:50.383Z,10.12
2022-11-23T06:54:27.470Z,10.09
2022-11-23T06:56:59.314Z,10.06
2022-11-23T06:59:30.413Z,9.99
2022-11-23T07:02:03.204Z,10.01
2022-11-23T07:04:39.466Z,9.99
2022-11-23T07:07:16.075Z,9.96
2022-11-23T07:09:57.337Z,9.92
2022-11-23T07:12:35.744Z,9.91
2022-11-23T07:15:06.713Z,9.88
2022-11-23T07:17:44.208Z,9.86
2022-11-23T07:20:16.265Z,9.82
2022-11-23T07:22:48.086Z,9.80
2022-11-23T07:25:20.822Z,9.77
2022-11-23T07:28:00.455Z,9.71
2022-11-23T07:30:33.065Z,9.71
2022-11-23T07:33:11.101Z,9.67
2022-11-23T07:35:43.465Z,9.64
2022-11-23T07:38:13.978Z,9.60
2022-11-23T07:40:45.698Z,9.58
2022-11-23T07:43:27.741Z,9.54
2022-11-23T07:46:01.007Z,9.52
2022-11-23T07:48:36.119Z,9.46
2022-11-23T07:51:07.266Z,9.43
2022-11-23T07:53:38.712Z,9.37
2022-11-23T07:56:09.739Z,9.31
2022-11-23T07:58:40.149Z,9.26
2022-11-23T08:01:10.661Z,9.20
2022-11-23T08:03:41.492Z,9.15
2022-11-23T08:06:14.263Z,9.06
2022-11-23T08:08:44.868Z,8.97
2022-11-23T08:11:18.587Z,8.94
2022-11-23T08:13:52.372Z,8.87
2022-11-23T08:16:23.028Z,8.82
2022-11-23T08:18:53.637Z,8.74
2022-11-23T08:21:24.194Z,8.70
2022-11-23T08:23:54.735Z,8.63
2022-11-23T08:26:25.062Z,8.58
2022-11-23T08:28:55.502Z,8.53
2022-11-23T08:31:27.145Z,8.47
2022-11-23T08:34:02.923Z,8.43
2022-11-23T08:36:35.125Z,8.38
2022-11-23T08:39:06.168Z,8.32
2022-11-23T08:41:37.231Z,8.30
2022-11-23T08:44:10.340Z,8.24
2022-11-23T08:46:41.668Z,8.18
2022-11-23T08:49:12.029Z,8.13
2022-11-23T08:51:49.736Z,8.07
2022-11-23T08:54:21.652Z,8.03
2022-11-23T08:56:54.838Z,7.98
2022-11-23T08:59:25.155Z,7.91
2022-11-23T09:01:56.059Z,7.87
2022-11-23T09:04:28.904Z,7.78
2022-11-23T09:06:59.578Z,7.74
2022-11-23T09:09:29.672Z,7.67
2022-11-23T09:11:59.889Z,7.61
2022-11-23T09:14:31.017Z,7.55
2022-11-23T09:17:03.156Z,7.49
2022-11-23T09:19:33.838Z,7.41
2022-11-23T09:22:04.195Z,7.35
2022-11-23T09:24:34.895Z,7.30
2022-11-23T09:27:07.282Z,7.28
2022-11-23T09:29:38.520Z,7.22
2022-11-23T09:32:08.974Z,7.23
2022-11-23T09:34:40.240Z,7.16
2022-11-23T09:37:10.737Z,7.12
2022-11-23T09:39:41.046Z,7.10
2022-11-23T09:42:26.398Z,7.09
2022-11-23T09:45:41.043Z,7.07
2022-11-23T09:48:32.554Z,7.05
2022-11-23T09:51:27.024Z,7.01
2022-11-23T09:54:11.993Z,6.96
2022-11-23T09:56:47.449Z,6.96
2022-11-23T09:59:46.671Z,6.93
2022-11-23T10:02:24.088Z,6.89
2022-11-23T10:04:56.975Z,6.88
2022-11-23T10:07:44.159Z,6.86
2022-11-23T10:10:16.872Z,6.83
2022-11-23T10:12:55.314Z,6.79
2022-11-23T10:15:42.081Z,6.78
2022-11-23T10:18:18.226Z,6.77
2022-11-23T10:21:10.758Z,6.75
2022-11-23T10:23:49.223Z,6.74
2022-11-23T10:26:21.776Z,6.73
2022-11-23T10:28:52.881Z,6.72
2022-11-23T10:31:26.068Z,6.72
2022-11-23T10:34:12.488Z,6.72
2022-11-23T10:36:43.162Z,6.76
2022-11-23T10:39:28.649Z,6.77
2022-11-23T10:42:06.818Z,6.77
2022-11-23T10:44:39.853Z,6.75
2022-11-23T10:47:09.894Z,6.75
2022-11-23T10:49:39.963Z,6.75
2022-11-23T10:52:34.870Z,6.73
2022-11-23T10:55:10.625Z,6.70
2022-11-23T10:57:49.314Z,6.68
2022-11-23T11:00:27.227Z,6.68
2022-11-23T11:03:02.116Z,6.67
2022-11-23T11:09:21.281Z,6.62
2022-11-23T11:11:56.505Z,6.57
2022-11-23T11:14:26.762Z,6.56
2022-11-23T11:17:05.992Z,6.52
2022-11-23T11:19:40.709Z,6.44
2022-11-23T11:22:44.694Z,6.39
2022-11-23T11:25:39.782Z,6.35
2022-11-23T11:28:33.928Z,6.30
2022-11-23T11:31:49.517Z,6.25
2022-11-23T11:34:36.334Z,6.22
2022-11-23T11:37:30.932Z,6.18
2022-11-23T11:40:22.593Z,6.12
2022-11-23T11:43:17.671Z,6.09
2022-11-23T11:46:21.295Z,6.07
2022-11-23T11:48:48.359Z,6.03
2022-11-23T11:51:49.544Z,5.99
2022-11-23T11:54:37.373Z,5.94
2022-11-23T11:57:32.155Z,5.95
2022-11-23T12:00:07.430Z,5.92
2022-11-23T12:03:12.780Z,5.90
2022-11-23T12:05:54.404Z,5.82
2022-11-23T12:08:48.863Z,5.72
2022-11-23T12:11:21.106Z,5.57
2022-11-23T12:13:51.993Z,5.46
2022-11-23T12:16:43.427Z,5.32
2022-11-23T12:19:21.288Z,5.22
2022-11-23T12:22:22.329Z,5.12
2022-11-23T12:25:29.786Z,5.01
2022-11-23T12:28:21.616Z,4.90
2022-11-23T12:30:58.963Z,4.82
2022-11-23T12:34:01.705Z,4.74
2022-11-23T12:36:31.980Z,4.66
2022-11-23T12:39:26.396Z,4.62
2022-11-23T12:42:35.642Z,4.56
2022-11-23T12:45:15.062Z,4.51
2022-11-23T12:48:00.783Z,4.47
2022-11-23T12:51:17.656Z,4.42
2022-11-23T12:54:16.849Z,4.41
2022-11-23T12:57:04.111Z,4.43
2022-11-23T12:59:54.565Z,4.46
2022-11-23T13:03:01.671Z,4.45
2022-11-23T13:06:08.256Z,4.52
2022-11-23T13:09:14.973Z,4.52
2022-11-23T13:12:33.171Z,4.53
2022-11-23T13:15:17.489Z,4.53
2022-11-23T13:18:04.273Z,4.52
2022-11-23T13:20:43.846Z,4.50
2022-11-23T13:23:15.084Z,4.49
2022-11-23T13:26:05.305Z,4.46
2022-11-23T13:28:35.833Z,4.48
2022-11-23T13:31:20.116Z,4.48
2022-11-23T13:33:53.362Z,4.45
2022-11-23T13:37:10.520Z,4.41
2022-11-23T13:39:54.469Z,4.33
2022-11-23T13:42:26.961Z,4.25
2022-11-23T13:45:38.667Z,4.17
2022-11-23T13:48:28.120Z,4.14
2022-11-23T13:51:04.419Z,4.10
2022-11-23T13:53:54.091Z,4.11
2022-11-23T13:56:45.636Z,4.12
2022-11-23T13:59:24.778Z,4.14
2022-11-23T14:02:11.626Z,4.16
2022-11-23T14:04:49.716Z,4.16
2022-11-23T14:07:48.328Z,4.18
2022-11-23T14:10:27.782Z,4.18
2022-11-23T14:13:04.300Z,4.21
2022-11-23T14:15:45.804Z,4.23
2022-11-23T14:18:34.235Z,4.23
2022-11-23T14:21:05.426Z,4.22
2022-11-23T14:24:15.738Z,4.18
2022-11-23T14:27:38.929Z,4.21
2022-11-23T14:30:09.337Z,4.21
2022-11-23T14:32:50.808Z,4.20
2022-11-23T14:35:56.224Z,4.20
2022-11-23T14:38:38.718Z,4.15
2022-11-23T14:41:19.226Z,4.10
2022-11-23T14:43:50.025Z,4.07
2022-11-23T14:46:27.838Z,4.03
2022-11-23T14:49:17.118Z,4.00
2022-11-23T14:51:48.261Z,3.96
2022-11-23T14:54:20.663Z,3.96
2022-11-23T14:56:53.682Z,3.98
2022-11-23T14:59:27.352Z,3.97
2022-11-23T15:02:02.112Z,3.97
2022-11-23T15:04:37.512Z,3.95
2022-11-23T15:07:27.280Z,3.94
2022-11-23T15:10:24.925Z,3.92
2022-11-23T15:12:55.323Z,3.90
2022-11-23T15:15:40.935Z,3.92
2022-11-23T15:18:12.861Z,3.90
2022-11-23T15:20:45.222Z,3.88
2022-11-23T15:23:25.264Z,3.84
2022-11-23T15:25:57.971Z,3.82
2022-11-23T15:28:33.686Z,3.81
2022-11-23T15:31:19.046Z,3.79
2022-11-23T15:33:56.496Z,3.78
2022-11-23T15:36:41.581Z,3.75
2022-11-23T15:39:21.439Z,3.72
2022-11-23T15:42:01.513Z,3.68
2022-11-23T15:44:38.269Z,3.62
2022-11-23T15:47:17.973Z,3.56
2022-11-23T15:49:50.472Z,3.52
2022-11-23T15:52:23.291Z,3.49
2022-11-23T15:55:01.362Z,3.48
2022-11-23T15:57:35.033Z,3.50
2022-11-23T16:00:09.507Z,3.53
2022-11-23T16:02:46.376Z,3.52
2022-11-23T16:05:25.644Z,3.52
2022-11-23T16:08:04.531Z,3.49
2022-11-23T16:10:38.965Z,3.53
2022-11-23T16:13:29.237Z,3.49
2022-11-23T16:16:17.153Z,3.46
2022-11-23T16:18:53.567Z,3.43
2022-11-23T16:21:26.664Z,3.40
2022-11-23T16:24:01.545Z,3.34
2022-11-23T16:26:37.132Z,3.27
2022-11-23T16:29:08.939Z,3.24
2022-11-23T16:31:42.471Z,3.22
2022-11-23T16:34:19.258Z,3.17
2022-11-23T16:36:49.864Z,3.16
2022-11-23T16:39:21.920Z,3.14
2022-11-23T16:41:56.079Z,3.11
2022-11-23T16:44:27.082Z,3.08
2022-11-23T16:47:14.740Z,3.03
2022-11-23T16:49:46.211Z,3.01
2022-11-23T16:52:18.094Z,2.94
2022-11-23T16:54:50.716Z,2.94
2022-11-23T16:57:32.748Z,2.97
2022-11-23T17:00:09.240Z,2.96
2022-11-23T17:02:42.261Z,2.95
2022-11-23T17:05:22.085Z,2.94
2022-11-23T17:07:53.496Z,2.94
2022-11-23T17:10:25.046Z,2.98
2022-11-23T17:12:58.032Z,2.98
2022-11-23T17:15:30.190Z,2.98
2022-11-23T17:18:01.449Z,2.97
2022-11-23T17:20:31.710Z,2.97
2022-11-23T17:23:02.828Z,2.96
2022-11-23T17:25:36.115Z,2.94
2022-11-23T17:28:14.381Z,2.90
2022-11-23T17:30:45.559Z,2.88
2022-11-23T17:33:16.597Z,2.87
2022-11-23T17:35:46.780Z,2.91
2022-11-23T17:38:21.424Z,2.89
2022-11-23T17:40:53.293Z,2.85
2022-11-23T17:43:23.956Z,2.85
2022-11-23T17:45:55.180Z,2.80
2022-11-23T17:48:25.676Z,2.80
2022-11-23T17:50:56.460Z,2.82
2022-11-23T17:53:30.632Z,2.83
2022-11-23T17:56:01.845Z,2.81
2022-11-23T17:58:32.619Z,2.85
2022-11-23T18:01:04.298Z,2.91
2022-11-23T18:03:35.452Z,2.95
2022-11-23T18:06:05.675Z,3.01
2022-11-23T18:08:35.776Z,3.01
2022-11-23T18:11:06.660Z,3.03
2022-11-23T18:13:37.233Z,3.11
2022-11-23T18:16:07.726Z,3.16
2022-11-23T18:18:38.269Z,3.19
2022-11-23T18:21:12.585Z,3.18
2022-11-23T18:23:46.582Z,3.17
2022-11-23T18:26:19.432Z,3.16
2022-11-23T18:28:52.261Z,3.12
2022-11-23T18:31:22.492Z,3.11
2022-11-23T18:33:52.818Z,3.10
2022-11-23T18:36:22.856Z,3.07
2022-11-23T18:38:53.408Z,3.09
2022-11-23T18:41:24.609Z,3.05
2022-11-23T18:43:54.964Z,3.02
2022-11-23T18:46:26.836Z,3.00
2022-11-23T18:48:59.385Z,2.99
2022-11-23T18:51:29.820Z,2.97
2022-11-23T18:53:59.896Z,2.99
2022-11-23T18:56:29.888Z,2.99
2022-11-23T18:59:01.092Z,3.02
2022-11-23T19:01:31.478Z,3.07
2022-11-23T19:04:02.573Z,3.14
2022-11-23T19:06:34.525Z,3.22
2022-11-23T19:09:06.497Z,3.28
2022-11-23T19:11:36.603Z,3.33
2022-11-23T19:14:07.535Z,3.40
2022-11-23T19:16:38.860Z,3.42
2022-11-23T19:19:09.948Z,3.47
2022-11-23T19:21:40.434Z,3.53
2022-11-23T19:24:11.688Z,3.56
2022-11-23T19:26:42.117Z,3.61
2022-11-23T19:29:13.474Z,3.66
2022-11-23T19:31:43.726Z,3.71
2022-11-23T19:34:13.833Z,3.78
2022-11-23T19:36:44.800Z,3.84
2022-11-23T19:39:16.395Z,3.90
2022-11-23T19:41:46.827Z,3.92
2022-11-23T19:44:16.941Z,3.94
2022-11-23T19:46:47.798Z,3.94
2022-11-23T19:49:18.818Z,3.92
2022-11-23T19:51:52.233Z,3.91
2022-11-23T19:54:23.784Z,3.94
2022-11-23T19:56:55.790Z,3.93
2022-11-23T19:59:28.988Z,3.93
2022-11-23T20:01:59.683Z,3.95
2022-11-23T20:04:31.584Z,3.97
2022-11-23T20:07:02.987Z,3.99
2022-11-23T20:09:34.938Z,4.02
2022-11-23T20:12:06.334Z,4.07
2022-11-23T20:14:38.450Z,4.08
2022-11-23T20:17:09.029Z,4.11
2022-11-23T20:19:40.676Z,4.14
2022-11-23T20:22:11.119Z,4.18
2022-11-23T20:24:42.077Z,4.21
2022-11-23T20:27:12.403Z,4.26
2022-11-23T20:29:42.528Z,4.29
2022-11-23T20:32:14.946Z,4.30
2022-11-23T20:34:45.345Z,4.35
2022-11-23T20:37:15.355Z,4.39
2022-11-23T20:39:45.636Z,4.40
2022-11-23T20:42:15.860Z,4.43
2022-11-23T20:44:46.795Z,4.42
2022-11-23T20:47:18.146Z,4.40
2022-11-23T20:49:48.282Z,4.35
2022-11-23T20:52:19.321Z,4.33
2022-11-23T20:54:50.669Z,4.31
2022-11-23T20:57:21.531Z,4.25
2022-11-23T20:59:51.724Z,4.25
2022-11-23T21:02:22.712Z,4.24
2022-11-23T21:04:54.263Z,4.22
2022-11-23T21:07:24.893Z,4.28
2022-11-23T21:09:55.601Z,4.31
2022-11-23T21:12:47.678Z,4.31
2022-11-23T21:15:20.821Z,4.36
2022-11-23T21:17:51.335Z,4.40
2022-11-23T21:20:21.311Z,4.40
2022-11-23T21:22:52.216Z,4.40
2022-11-23T21:25:22.476Z,4.42
2022-11-23T21:27:54.242Z,4.41
2022-11-23T21:30:25.480Z,4.42
2022-11-23T21:32:56.318Z,4.42
2022-11-23T21:35:27.438Z,4.43
2022-11-23T21:37:58.298Z,4.43
2022-11-23T21:40:29.481Z,4.42
2022-11-23T21:43:00.701Z,4.44
2022-11-23T21:45:31.924Z,4.44
2022-11-23T21:48:03.446Z,4.42
2022-11-23T21:50:33.427Z,4.39
2022-11-23T21:53:03.386Z,4.35
2022-11-23T21:55:34.117Z,4.33
2022-11-23T21:58:04.024Z,4.30
2022-11-23T22:00:35.158Z,4.28
2022-11-23T22:03:06.125Z,4.29
2022-11-23T22:05:37.195Z,4.34
2022-11-23T22:08:28.836Z,4.36
2022-11-23T22:10:58.549Z,4.39
2022-11-23T22:13:32.693Z,4.42
2022-11-23T22:16:15.361Z,4.46
2022-11-23T22:18:49.344Z,4.48
2022-11-23T22:21:23.643Z,4.50
2022-11-23T22:23:54.828Z,4.51
2022-11-23T22:26:26.205Z,4.55
2022-11-23T22:28:58.509Z,4.59
2022-11-23T22:31:30.914Z,4.60
2022-11-23T22:34:05.384Z,4.63
2022-11-23T22:36:36.012Z,4.65
2022-11-23T22:39:08.599Z,4.69
2022-11-23T22:41:40.312Z,4.69
2022-11-23T22:44:13.108Z,4.72
2022-11-23T22:46:46.738Z,4.72
2022-11-23T22:49:18.492Z,4.68
2022-11-23T22:51:49.011Z,4.65
2022-11-23T22:54:19.714Z,4.63
2022-11-23T22:56:50.513Z,4.59
2022-11-23T22:59:20.680Z,4.54
2022-11-23T23:01:51.484Z,4.51
2022-11-23T23:04:22.716Z,4.50
2022-11-23T23:06:59.410Z,4.52
2022-11-23T23:09:30.164Z,4.55
2022-11-23T23:12:02.077Z,4.58
2022-11-23T23:14:32.780Z,4.62
2022-11-23T23:17:04.573Z,4.62
2022-11-23T23:19:35.061Z,4.67
2022-11-23T23:22:10.683Z,4.71
2022-11-23T23:24:39.989Z,4.76
2022-11-23T23:27:09.333Z,4.77
2022-11-23T23:29:39.962Z,4.76
2022-11-23T23:32:10.372Z,4.80
2022-11-23T23:34:40.352Z,4.83
2022-11-23T23:37:12.616Z,4.85
2022-11-23T23:39:43.469Z,4.87
2022-11-23T23:42:14.397Z,4.89
2022-11-23T23:44:44.682Z,4.88
2022-11-23T23:47:15.766Z,4.92
2022-11-23T23:49:46.604Z,4.93
2022-11-23T23:52:17.234Z,4.96
2022-11-23T23:54:47.678Z,4.96
2022-11-23T23:57:19.275Z,5.01
2022-11-23T23:59:49.860Z,5.05
